sim
Sign-in with your pilot id or email,
or register
Callsign
Passwort

Schedule Details

Flight Number: RYR5797 (1)
Departure: Frankfurt Hahn Airport (EDFH) at 15:50
Arrival: Thessaloniki International Airport (LGTS) at 18:25
Route: Ryanair Passenger Schedule. Enter filed route here before submitting Pirep.

Weather Information
Getting current METAR information for EDFH 211120Z 27008KT 240V300 9999 FEW026 BKN040 08/05 Q1027
Getting current METAR information for LGTS 211120Z 33019KT CAVOK 16/M01 Q1023 NOSIG

Schedule Frequency

Route Map